Richmond Highlands, Washington
Current Conditions -  °F | °C
As of 11:53 PM on Sunday 21 Dec 2014 (Local Time) from KPAE Reporting Station
Clear Clear  
Wind Chill: 46°   Ceiling: Unl
Heat Index: 46°   Visibility: 9mi
Dew Point: 43°   Wind: 3mph
Humidity: 89%   Direction: 110°ESE
Pressure: 30.11"   Gusts: NA
Location:  47.7401°N, 122.344°W
Report Text: KPAE 220753Z AUTO 11003KT 9SM CLR 08/06 A3011 RMK AO2 SLP198 T00780061 401170072
Loading
Personal Weather Stations






























Interactive Weather Map New forecast layout! Learn more

10-Day Weather Forecast

Advertisements
Track Severe Weather on mobile